createdAt,value
2017-11-16T00:01:17.973Z,14.00
2017-11-16T00:03:45.214Z,13.13
2017-11-16T00:06:11.643Z,14.38
2017-11-16T00:08:38.055Z,13.35
2017-11-16T00:11:04.493Z,13.68
2017-11-16T00:13:30.954Z,12.80
2017-11-16T00:15:57.380Z,15.55
2017-11-16T00:18:24.595Z,13.60
2017-11-16T00:20:51.059Z,13.55
2017-11-16T00:23:18.290Z,12.30
2017-11-16T00:25:44.754Z,13.88
2017-11-16T00:28:11.912Z,15.20
2017-11-16T00:30:38.332Z,13.88
2017-11-16T00:33:05.534Z,13.70
2017-11-16T00:35:31.999Z,12.93
2017-11-16T00:37:58.396Z,13.57
2017-11-16T00:40:24.825Z,14.75
2017-11-16T00:42:51.227Z,15.88
2017-11-16T00:45:18.362Z,15.48
2017-11-16T00:47:45.550Z,16.05
2017-11-16T00:50:11.955Z,15.38
2017-11-16T00:52:39.102Z,14.15
2017-11-16T00:55:05.506Z,15.45
2017-11-16T00:57:31.938Z,14.52
2017-11-16T00:59:58.329Z,15.80
2017-11-16T01:02:24.745Z,14.50
2017-11-16T01:04:51.218Z,16.48
2017-11-16T01:07:17.602Z,15.40
2017-11-16T01:09:44.039Z,14.68
2017-11-16T01:12:11.184Z,14.50
2017-11-16T01:14:38.378Z,15.95
2017-11-16T01:17:04.831Z,16.80
2017-11-16T01:19:31.226Z,18.12
2017-11-16T01:21:57.658Z,16.48
2017-11-16T01:24:24.080Z,15.07
2017-11-16T01:26:50.491Z,14.52
2017-11-16T01:29:16.939Z,14.65
2017-11-16T01:31:43.426Z,14.93
2017-11-16T01:34:09.843Z,17.40
2017-11-16T01:36:37.004Z,15.45
2017-11-16T01:39:03.463Z,13.82
2017-11-16T01:41:29.918Z,14.65
2017-11-16T01:43:56.358Z,14.32
2017-11-16T01:46:22.798Z,13.13
2017-11-16T01:48:49.251Z,12.70
2017-11-16T01:51:15.656Z,13.85
2017-11-16T01:53:42.089Z,14.10
2017-11-16T01:56:08.530Z,14.70
2017-11-16T01:58:34.999Z,13.00
2017-11-16T02:01:01.486Z,13.00
2017-11-16T02:03:27.958Z,14.98
2017-11-16T02:05:55.142Z,13.48
2017-11-16T02:08:21.626Z,13.55
2017-11-16T02:10:48.086Z,14.38
2017-11-16T02:13:14.507Z,15.15
2017-11-16T02:15:40.949Z,15.75
2017-11-16T02:18:07.424Z,14.73
2017-11-16T02:20:34.660Z,11.85
2017-11-16T02:23:01.101Z,13.25
2017-11-16T02:25:28.276Z,13.80
2017-11-16T02:27:54.799Z,12.48
2017-11-16T02:30:21.277Z,12.98
2017-11-16T02:32:47.755Z,15.70
2017-11-16T02:35:14.996Z,13.13
2017-11-16T02:37:42.241Z,13.30
2017-11-16T02:40:08.744Z,14.60
2017-11-16T02:42:35.243Z,15.00
2017-11-16T02:45:01.734Z,14.40
2017-11-16T02:47:28.235Z,15.73
2017-11-16T02:49:54.695Z,13.85
2017-11-16T02:52:21.156Z,14.63
2017-11-16T02:54:48.404Z,13.38
2017-11-16T02:57:14.883Z,12.30
2017-11-16T02:59:41.348Z,13.05
2017-11-16T03:02:07.901Z,15.18
2017-11-16T03:04:34.336Z,12.85
2017-11-16T03:07:00.764Z,13.15
2017-11-16T03:09:27.982Z,13.30
2017-11-16T03:11:54.438Z,13.73
2017-11-16T03:14:20.870Z,14.05
2017-11-16T03:16:47.293Z,13.38
2017-11-16T03:19:13.761Z,12.63
2017-11-16T03:21:40.946Z,14.40
2017-11-16T03:24:07.390Z,12.85
2017-11-16T03:26:33.854Z,13.60
2017-11-16T03:29:00.312Z,14.95
2017-11-16T03:31:27.522Z,15.05
2017-11-16T03:33:53.974Z,16.23
2017-11-16T03:36:20.438Z,15.25
2017-11-16T03:38:47.626Z,16.42
2017-11-16T03:41:14.083Z,16.65
2017-11-16T03:43:40.535Z,16.87
2017-11-16T03:46:07.729Z,14.95
2017-11-16T03:48:34.153Z,15.90
2017-11-16T03:51:01.347Z,18.60
2017-11-16T03:53:27.800Z,17.73
2017-11-16T03:55:54.219Z,19.02
2017-11-16T03:58:20.634Z,19.08
2017-11-16T04:00:47.067Z,19.50
2017-11-16T04:03:13.501Z,20.15
2017-11-16T04:05:39.944Z,19.20
2017-11-16T04:08:06.400Z,19.65
2017-11-16T04:10:32.849Z,22.02
2017-11-16T04:12:59.302Z,19.77
2017-11-16T04:15:25.777Z,20.30
2017-11-16T04:17:52.206Z,20.65
2017-11-16T04:20:18.636Z,19.60
2017-11-16T04:22:45.153Z,19.73
2017-11-16T04:25:11.640Z,20.80
2017-11-16T04:27:38.958Z,22.05
2017-11-16T04:30:05.424Z,21.25
2017-11-16T04:32:32.616Z,21.83
2017-11-16T04:34:59.798Z,23.70
2017-11-16T04:37:26.234Z,23.15
2017-11-16T04:39:52.627Z,22.75
2017-11-16T04:42:19.064Z,23.60
2017-11-16T04:44:45.559Z,21.73
2017-11-16T04:47:12.722Z,23.30
2017-11-16T04:49:39.128Z,24.17
2017-11-16T04:52:06.318Z,22.42
2017-11-16T04:54:32.746Z,25.08
2017-11-16T04:56:59.131Z,23.25
2017-11-16T04:59:25.666Z,21.40
2017-11-16T05:01:52.108Z,23.20
2017-11-16T05:04:18.526Z,23.87
2017-11-16T05:06:45.745Z,24.25
2017-11-16T05:09:12.196Z,23.15
2017-11-16T05:11:38.634Z,22.52
2017-11-16T05:14:05.112Z,23.50
2017-11-16T05:16:32.289Z,24.42
2017-11-16T05:18:59.501Z,24.20
2017-11-16T05:21:26.007Z,27.67
2017-11-16T05:23:52.539Z,24.42
2017-11-16T05:26:19.054Z,23.60
2017-11-16T05:28:45.502Z,24.67
2017-11-16T05:31:11.954Z,23.40
2017-11-16T05:33:38.434Z,23.23
2017-11-16T05:36:04.902Z,21.87
2017-11-16T05:38:31.390Z,23.15
2017-11-16T05:40:58.566Z,23.23
2017-11-16T05:43:24.979Z,22.23
2017-11-16T05:45:51.430Z,22.05
2017-11-16T05:48:17.910Z,23.85
2017-11-16T05:50:44.378Z,21.45
2017-11-16T05:53:10.925Z,23.30
2017-11-16T05:55:38.111Z,23.50
2017-11-16T05:58:04.579Z,22.48
2017-11-16T06:00:31.031Z,23.50
2017-11-16T06:02:57.506Z,22.65
2017-11-16T06:05:24.008Z,23.80
2017-11-16T06:07:51.191Z,24.20
2017-11-16T06:10:17.629Z,25.55
2017-11-16T06:12:44.045Z,22.35
2017-11-16T06:15:10.518Z,23.83
2017-11-16T06:17:37.707Z,24.60
2017-11-16T06:20:04.916Z,36.10
2017-11-16T06:22:32.061Z,31.27
2017-11-16T06:24:58.522Z,30.88
2017-11-16T06:27:25.673Z,27.40
2017-11-16T06:29:52.162Z,24.98
2017-11-16T06:32:18.597Z,24.58
2017-11-16T06:34:45.004Z,23.83
2017-11-16T06:37:11.452Z,21.92
2017-11-16T06:39:37.899Z,22.37
2017-11-16T06:42:04.343Z,23.52
2017-11-16T06:44:30.739Z,24.27
2017-11-16T06:46:57.154Z,25.35
2017-11-16T06:49:24.300Z,24.25
2017-11-16T06:51:51.537Z,24.85
2017-11-16T06:54:18.706Z,25.95
2017-11-16T06:56:45.082Z,25.12
2017-11-16T06:59:11.502Z,25.58
2017-11-16T07:01:37.884Z,25.00
2017-11-16T07:04:04.335Z,25.10
2017-11-16T07:06:30.750Z,26.25
2017-11-16T07:08:57.170Z,23.60
2017-11-16T07:11:23.567Z,23.87
2017-11-16T07:13:49.994Z,23.38
2017-11-16T07:16:16.400Z,21.15
2017-11-16T07:18:43.602Z,26.10
2017-11-16T07:21:10.101Z,22.62
2017-11-16T07:23:36.506Z,28.10
2017-11-16T07:26:03.654Z,24.63
2017-11-16T07:28:30.815Z,21.83
2017-11-16T07:30:57.232Z,23.90
2017-11-16T07:33:23.644Z,23.98
2017-11-16T07:35:50.033Z,23.12
2017-11-16T07:38:16.506Z,22.85
2017-11-16T07:40:51.805Z,22.45
2017-11-16T07:43:18.323Z,23.27
2017-11-16T07:45:44.779Z,24.40
2017-11-16T07:48:11.221Z,21.83
2017-11-16T07:50:37.727Z,22.67
2017-11-16T07:53:04.197Z,22.58
2017-11-16T07:55:30.663Z,24.17
2017-11-16T07:57:57.078Z,20.52
2017-11-16T08:00:23.538Z,20.58
2017-11-16T08:02:50.682Z,22.40
2017-11-16T08:05:17.066Z,21.73
2017-11-16T08:07:43.514Z,22.35
2017-11-16T08:10:09.991Z,22.52
2017-11-16T08:12:36.416Z,19.12
2017-11-16T08:15:03.577Z,21.60
2017-11-16T08:17:30.022Z,19.15
2017-11-16T08:19:57.147Z,21.62
2017-11-16T08:22:24.409Z,21.55
2017-11-16T08:24:50.853Z,20.60
2017-11-16T08:27:17.266Z,19.35
2017-11-16T08:29:46.132Z,19.77
2017-11-16T08:32:14.441Z,19.92
2017-11-16T08:34:44.075Z,20.15
2017-11-16T08:37:11.742Z,19.15
2017-11-16T08:39:38.304Z,21.00
2017-11-16T08:42:04.786Z,20.23
2017-11-16T08:44:32.008Z,22.35
2017-11-16T08:46:59.206Z,20.02
2017-11-16T08:49:25.673Z,20.33
2017-11-16T08:51:52.200Z,20.90
2017-11-16T08:54:18.687Z,21.75
2017-11-16T08:56:45.171Z,21.85
2017-11-16T08:59:11.662Z,22.20
2017-11-16T09:01:38.138Z,20.80
2017-11-16T09:04:04.610Z,22.50
2017-11-16T09:06:31.814Z,20.50
2017-11-16T09:08:58.305Z,21.40
2017-11-16T09:11:25.491Z,21.23
2017-11-16T09:13:51.987Z,21.10
2017-11-16T09:16:18.447Z,21.27
2017-11-16T09:18:44.938Z,21.85
2017-11-16T09:21:11.372Z,20.90
2017-11-16T09:23:37.844Z,23.08
2017-11-16T09:26:04.306Z,19.58
2017-11-16T09:28:30.797Z,20.95
2017-11-16T09:30:57.283Z,20.80
2017-11-16T09:33:23.754Z,20.30
2017-11-16T09:35:50.347Z,22.50
2017-11-16T09:38:16.802Z,23.35
2017-11-16T09:40:43.206Z,21.15
2017-11-16T09:43:09.642Z,21.60
2017-11-16T09:45:36.055Z,19.45
2017-11-16T09:48:02.526Z,20.98
2017-11-16T09:50:29.026Z,20.98
2017-11-16T09:52:55.482Z,20.15
2017-11-16T09:55:21.915Z,22.73
2017-11-16T09:57:49.127Z,20.17
2017-11-16T10:00:15.602Z,19.70
2017-11-16T10:02:42.046Z,19.95
2017-11-16T10:05:09.309Z,20.40
2017-11-16T10:07:35.726Z,19.80
2017-11-16T10:10:03.099Z,20.23
2017-11-16T10:12:29.983Z,19.15
2017-11-16T10:14:56.370Z,21.30
2017-11-16T10:17:22.810Z,18.77
2017-11-16T10:19:49.259Z,21.12
2017-11-16T10:22:16.404Z,21.40
2017-11-16T10:24:42.817Z,21.08
2017-11-16T10:27:09.249Z,19.90
2017-11-16T10:29:35.643Z,20.60
2017-11-16T10:32:02.126Z,21.35
2017-11-16T10:34:28.591Z,20.90
2017-11-16T10:36:55.058Z,19.05
2017-11-16T10:39:21.492Z,20.80
2017-11-16T10:41:47.951Z,20.80
2017-11-16T10:44:14.403Z,19.67
2017-11-16T10:46:41.599Z,22.92
2017-11-16T10:49:08.109Z,21.02
2017-11-16T10:51:34.573Z,19.37
2017-11-16T10:54:01.075Z,19.30
2017-11-16T10:56:27.516Z,21.17
2017-11-16T10:58:54.003Z,20.20
2017-11-16T11:01:20.435Z,18.48
2017-11-16T11:03:46.844Z,20.60
2017-11-16T11:06:13.323Z,21.25
2017-11-16T11:08:40.505Z,20.08
2017-11-16T11:11:06.955Z,20.35
2017-11-16T11:13:33.428Z,20.17
2017-11-16T11:16:00.640Z,21.15
2017-11-16T11:18:27.122Z,21.12
2017-11-16T11:20:54.288Z,21.27
2017-11-16T11:23:21.475Z,19.80
2017-11-16T11:25:47.895Z,20.25
2017-11-16T11:28:14.306Z,22.17
2017-11-16T11:30:41.462Z,21.33
2017-11-16T11:33:07.976Z,23.45
2017-11-16T11:35:35.145Z,22.33
2017-11-16T11:38:01.624Z,21.70
2017-11-16T11:40:28.056Z,24.00
2017-11-16T11:42:55.419Z,26.02
2017-11-16T11:45:21.874Z,22.70
2017-11-16T11:47:48.305Z,22.37
2017-11-16T11:50:14.732Z,21.10
2017-11-16T11:52:41.156Z,22.92
2017-11-16T11:55:07.627Z,22.73
2017-11-16T11:57:34.792Z,23.42
2017-11-16T12:00:01.249Z,23.50
2017-11-16T12:02:27.759Z,23.83
2017-11-16T12:04:55.078Z,24.85
2017-11-16T12:07:21.567Z,21.30
2017-11-16T12:09:48.028Z,21.85
2017-11-16T12:12:14.499Z,22.00
2017-11-16T12:14:40.928Z,22.45
2017-11-16T12:17:07.371Z,22.08
2017-11-16T12:19:33.803Z,22.30
2017-11-16T12:22:00.304Z,21.70
2017-11-16T12:24:26.826Z,23.52
2017-11-16T12:26:53.252Z,27.17
2017-11-16T12:29:19.761Z,22.37
2017-11-16T12:31:46.244Z,21.48
2017-11-16T12:34:12.742Z,24.00
2017-11-16T12:36:39.235Z,23.35
2017-11-16T12:39:05.667Z,22.08
2017-11-16T12:41:32.148Z,23.45
2017-11-16T12:43:58.599Z,22.52
2017-11-16T12:46:25.080Z,22.37
2017-11-16T12:48:51.573Z,22.55
2017-11-16T12:51:18.639Z,23.38
2017-11-16T12:53:45.228Z,23.75
2017-11-16T12:56:11.679Z,23.35
2017-11-16T12:58:38.133Z,23.50
2017-11-16T13:01:05.337Z,22.65
2017-11-16T13:03:31.810Z,22.73
2017-11-16T13:05:58.279Z,23.20
2017-11-16T13:08:24.731Z,22.25
2017-11-16T13:10:51.954Z,23.92
2017-11-16T13:13:18.431Z,23.42
2017-11-16T13:15:44.840Z,21.73
2017-11-16T13:18:11.359Z,22.60
2017-11-16T13:20:37.814Z,22.13
2017-11-16T13:23:04.267Z,23.05
2017-11-16T13:25:30.728Z,23.05
2017-11-16T13:27:57.934Z,23.10
2017-11-16T13:30:24.357Z,23.42
2017-11-16T13:32:50.826Z,22.52
2017-11-16T13:35:17.225Z,24.40
2017-11-16T13:37:43.644Z,23.40
2017-11-16T13:40:10.149Z,22.02
2017-11-16T13:42:36.575Z,21.33
2017-11-16T13:45:03.751Z,20.88
2017-11-16T13:47:30.224Z,21.45
2017-11-16T13:49:56.688Z,21.98
2017-11-16T13:52:23.123Z,21.83
2017-11-16T13:54:49.568Z,22.52
2017-11-16T13:57:16.060Z,21.30
2017-11-16T13:59:42.450Z,23.38
2017-11-16T14:02:09.656Z,21.42
2017-11-16T14:04:36.116Z,22.00
2017-11-16T14:07:02.573Z,23.40
2017-11-16T14:09:29.704Z,22.90
2017-11-16T14:11:56.146Z,23.98
2017-11-16T14:14:23.328Z,22.85
2017-11-16T14:16:49.814Z,24.10
2017-11-16T14:19:16.231Z,25.25
2017-11-16T14:21:43.409Z,23.42
2017-11-16T14:24:09.801Z,22.25
2017-11-16T14:26:36.234Z,23.00
2017-11-16T14:29:02.695Z,22.80
2017-11-16T14:31:29.164Z,23.17
2017-11-16T14:33:55.603Z,23.70
2017-11-16T14:36:22.065Z,23.65
2017-11-16T14:38:48.527Z,24.20
2017-11-16T14:41:14.979Z,23.85
2017-11-16T14:43:41.439Z,24.50
2017-11-16T14:46:07.887Z,25.00
2017-11-16T14:48:34.393Z,22.70
2017-11-16T14:51:00.800Z,23.10
2017-11-16T14:53:27.276Z,22.98
2017-11-16T14:55:53.732Z,22.08
2017-11-16T14:58:20.190Z,23.67
2017-11-16T15:00:46.716Z,22.80
2017-11-16T15:03:13.180Z,23.50
2017-11-16T15:05:40.315Z,22.50
2017-11-16T15:08:07.491Z,23.00
2017-11-16T15:10:33.913Z,20.30
2017-11-16T15:13:00.356Z,31.62
2017-11-16T15:15:26.823Z,25.75
2017-11-16T15:17:53.240Z,22.98
2017-11-16T15:20:19.708Z,25.15
2017-11-16T15:22:46.144Z,24.05
2017-11-16T15:25:12.604Z,21.65
2017-11-16T15:27:39.757Z,22.33
2017-11-16T15:30:06.952Z,21.70
2017-11-16T15:32:33.432Z,25.42
2017-11-16T15:34:59.850Z,22.77
2017-11-16T15:37:26.271Z,22.52
2017-11-16T15:39:52.711Z,21.65
2017-11-16T15:42:19.184Z,22.58
2017-11-16T15:44:45.632Z,21.65
2017-11-16T15:47:12.046Z,26.12
2017-11-16T15:49:39.330Z,23.73
2017-11-16T15:52:05.759Z,20.55
2017-11-16T15:54:32.169Z,21.08
2017-11-16T15:56:58.635Z,22.30
2017-11-16T15:59:25.104Z,21.83
2017-11-16T16:01:51.546Z,22.30
2017-11-16T16:04:18.708Z,22.83
2017-11-16T16:06:45.894Z,20.62
2017-11-16T16:09:12.335Z,22.15
2017-11-16T16:11:38.822Z,20.65
2017-11-16T16:14:05.254Z,23.35
2017-11-16T16:16:31.715Z,24.67
2017-11-16T16:18:58.166Z,22.48
2017-11-16T16:21:24.608Z,21.30
2017-11-16T16:23:51.056Z,22.17
2017-11-16T16:26:17.457Z,21.58
2017-11-16T16:28:43.949Z,23.08
2017-11-16T16:31:11.222Z,23.05
2017-11-16T16:33:37.711Z,24.23
2017-11-16T16:36:04.148Z,32.53
2017-11-16T16:38:30.603Z,23.70
2017-11-16T16:40:57.054Z,24.73
2017-11-16T16:43:24.191Z,28.83
2017-11-16T16:45:51.368Z,26.12
2017-11-16T16:48:17.815Z,24.40
2017-11-16T16:50:44.250Z,25.73
2017-11-16T16:53:10.718Z,23.50
2017-11-16T16:55:37.326Z,27.48
2017-11-16T16:58:03.802Z,33.63
2017-11-16T17:00:30.972Z,31.17
2017-11-16T17:02:57.461Z,27.10
2017-11-16T17:08:27.177Z,26.27
2017-11-16T17:10:54.360Z,30.60
2017-11-16T17:13:20.801Z,27.60
2017-11-16T17:15:47.358Z,23.08
2017-11-16T17:18:13.829Z,27.85
2017-11-16T17:20:41.036Z,30.23
2017-11-16T17:23:07.569Z,26.12
2017-11-16T17:25:34.051Z,24.87
2017-11-16T17:28:01.241Z,24.77
2017-11-16T17:30:27.699Z,25.00
2017-11-16T17:32:54.166Z,26.12
2017-11-16T17:35:20.614Z,28.77
2017-11-16T17:37:47.084Z,25.45
2017-11-16T17:40:13.564Z,25.60
2017-11-16T17:42:40.809Z,27.25
2017-11-16T17:45:07.299Z,29.80
2017-11-16T17:47:33.760Z,23.85
2017-11-16T17:50:00.228Z,24.58
2017-11-16T17:52:26.720Z,24.67
2017-11-16T17:54:53.189Z,24.10
2017-11-16T17:57:20.378Z,26.73
2017-11-16T17:59:46.848Z,26.27
2017-11-16T18:02:13.280Z,28.80
2017-11-16T18:04:39.726Z,25.48
2017-11-16T18:07:06.444Z,27.00
2017-11-16T18:09:32.870Z,24.02
2017-11-16T18:11:59.300Z,25.20
2017-11-16T18:14:25.752Z,25.17
2017-11-16T18:16:52.250Z,29.67
2017-11-16T18:19:18.692Z,24.87
2017-11-16T18:21:45.277Z,26.33
2017-11-16T18:24:12.458Z,30.50
2017-11-16T18:26:38.932Z,24.63
2017-11-16T18:29:05.364Z,27.17
2017-11-16T18:31:31.856Z,27.20
2017-11-16T18:33:58.279Z,26.95
2017-11-16T18:36:24.706Z,26.92
2017-11-16T18:38:51.918Z,23.62
2017-11-16T18:41:19.092Z,25.75
2017-11-16T18:43:46.348Z,25.27
2017-11-16T18:46:12.831Z,24.70
2017-11-16T18:48:39.289Z,22.85
2017-11-16T18:51:05.779Z,24.95
2017-11-16T18:53:32.247Z,26.35
2017-11-16T18:55:58.767Z,24.70
2017-11-16T18:58:25.222Z,23.50
2017-11-16T19:00:51.706Z,25.02
2017-11-16T19:03:18.216Z,23.83
2017-11-16T19:05:45.422Z,25.05
2017-11-16T19:08:11.922Z,25.02
2017-11-16T19:10:38.416Z,25.42
2017-11-16T19:13:04.890Z,24.98
2017-11-16T19:15:31.357Z,28.33
2017-11-16T19:17:57.802Z,25.05
2017-11-16T19:20:24.297Z,23.55
2017-11-16T19:22:50.746Z,25.75
2017-11-16T19:25:17.168Z,24.17
2017-11-16T19:27:43.669Z,24.20
2017-11-16T19:30:10.144Z,26.92
2017-11-16T19:32:36.656Z,24.65
2017-11-16T19:35:03.809Z,25.70
2017-11-16T19:37:30.284Z,27.55
2017-11-16T19:39:56.738Z,26.37
2017-11-16T19:42:23.204Z,24.98
2017-11-16T19:44:50.410Z,28.30
2017-11-16T19:47:16.846Z,27.10
2017-11-16T19:49:43.358Z,27.70
2017-11-16T19:52:09.897Z,28.77
2017-11-16T19:54:36.353Z,28.00
2017-11-16T19:57:02.848Z,28.38
2017-11-16T19:59:29.290Z,27.35
2017-11-16T20:01:55.821Z,25.60
2017-11-16T20:04:22.369Z,26.85
2017-11-16T20:06:48.826Z,26.92
2017-11-16T20:09:15.307Z,28.25
2017-11-16T20:11:41.797Z,28.17
2017-11-16T20:14:08.255Z,26.05
2017-11-16T20:16:35.447Z,28.45
2017-11-16T20:22:01.626Z,28.83
2017-11-16T20:24:28.084Z,28.58
2017-11-16T20:26:55.300Z,32.05
2017-11-16T20:29:21.759Z,32.53
2017-11-16T20:31:48.240Z,29.80
2017-11-16T20:34:14.724Z,30.40
2017-11-16T20:36:45.891Z,29.65
2017-11-16T20:52:55.333Z,29.48
2017-11-16T20:55:23.587Z,31.20
2017-11-16T20:57:50.762Z,32.80
2017-11-16T21:00:17.245Z,30.35
2017-11-16T21:02:44.459Z,30.05
2017-11-16T21:05:10.958Z,31.90
2017-11-16T21:07:37.404Z,27.42
2017-11-16T21:10:03.874Z,27.30
2017-11-16T21:12:30.327Z,26.80
2017-11-16T21:14:56.855Z,28.55
2017-11-16T21:17:23.332Z,28.95
2017-11-16T21:19:49.815Z,28.38
2017-11-16T21:22:17.035Z,28.17
2017-11-16T21:24:43.444Z,28.73
2017-11-16T21:27:10.650Z,25.73
2017-11-16T21:29:37.067Z,26.15
2017-11-16T21:32:03.515Z,28.95
2017-11-16T21:34:30.043Z,28.00
2017-11-16T21:36:56.506Z,25.27
2017-11-16T21:39:22.935Z,29.02
2017-11-16T21:41:49.363Z,27.98
2017-11-16T21:44:15.846Z,29.45
2017-11-16T21:46:42.304Z,27.42
2017-11-16T21:49:08.835Z,28.80
2017-11-16T21:51:35.253Z,29.30
2017-11-16T21:54:01.711Z,28.15
2017-11-16T21:56:28.187Z,28.45
2017-11-16T21:58:54.636Z,26.42
2017-11-16T22:01:21.056Z,29.33
2017-11-16T22:03:47.544Z,27.45
2017-11-16T22:06:13.946Z,27.87
2017-11-16T22:08:40.407Z,25.55
2017-11-16T22:11:06.848Z,26.52
2017-11-16T22:13:33.303Z,25.65
2017-11-16T22:15:59.755Z,23.62
2017-11-16T22:18:26.255Z,22.75
2017-11-16T22:20:52.674Z,23.20
2017-11-16T22:23:19.137Z,24.20
2017-11-16T22:25:45.593Z,26.23
2017-11-16T22:28:12.746Z,24.45
2017-11-16T22:30:39.906Z,25.15
2017-11-16T22:33:06.362Z,24.67
2017-11-16T22:35:32.798Z,23.83
2017-11-16T22:37:59.270Z,24.55
2017-11-16T22:40:25.676Z,23.27
2017-11-16T22:42:52.222Z,26.35
2017-11-16T22:45:18.681Z,23.98
2017-11-16T22:47:45.869Z,26.08
2017-11-16T22:50:12.314Z,25.77
2017-11-16T22:52:38.776Z,27.17
2017-11-16T22:55:05.167Z,26.05
2017-11-16T22:57:31.580Z,26.65
2017-11-16T22:59:58.053Z,25.75
2017-11-16T23:02:24.485Z,27.48
2017-11-16T23:04:50.908Z,25.92
2017-11-16T23:07:17.350Z,26.50
2017-11-16T23:09:43.743Z,25.92
2017-11-16T23:12:10.962Z,26.60
2017-11-16T23:14:37.398Z,27.73
2017-11-16T23:17:04.567Z,26.12
2017-11-16T23:19:30.958Z,27.10
2017-11-16T23:21:58.140Z,27.67
2017-11-16T23:24:24.549Z,25.40
2017-11-16T23:26:51.004Z,25.92
2017-11-16T23:29:18.174Z,25.95
2017-11-16T23:31:45.330Z,25.60
2017-11-16T23:34:11.756Z,26.27
2017-11-16T23:36:38.879Z,25.80
2017-11-16T23:39:05.478Z,24.37
2017-11-16T23:41:31.887Z,25.05
2017-11-16T23:43:58.332Z,25.23
2017-11-16T23:46:24.785Z,25.55
2017-11-16T23:48:51.171Z,25.33
2017-11-16T23:51:18.312Z,27.05
2017-11-16T23:53:45.491Z,26.30
2017-11-16T23:56:12.662Z,27.35
2017-11-16T23:58:39.094Z,25.92
